Bullhead City Mohave Valley, Arizona
Current Conditions -  °F | °C
As of 5:56 AM on Sunday 23 Nov 2014 (Local Time) from KEED Reporting Station
Clear Clear  
Wind Chill: 57°   Ceiling: Unl
Heat Index: 57°   Visibility: 10mi
Dew Point: 29°   Wind: 6mph
Humidity: 34%   Direction: 170°S
Pressure: 30.07"   Gusts: NA
Location:  34.91°N, 114.546°W
Report Text: KEED 231256Z AUTO 17005KT 10SM CLR 14/M02 A3007 RMK AO2 SLP164 T01391017
Loading
Personal Weather Stations






























Interactive Weather Map New forecast layout! Learn more

10-Day Weather Forecast

Advertisements
Track Severe Weather on mobile